Arbovale, West Virginia
Current Conditions -  °F | °C
As of 11:17 AM on Friday 19 Dec 2014 (Local Time) from KEKN Reporting Station
Haze Haze  
Wind Chill: 21°   Ceiling: 1500
Heat Index: 26°   Visibility: 6mi
Dew Point: 21°   Wind: 5mph
Humidity: 81%   Direction: NA
Pressure: 30.19"   Gusts: NA
Location:  38.44°N, 79.82°W
Report Text: KEKN 191617Z AUTO VRB04KT 6SM HZ OVC015 M03/M06 A3019 RMK AO2 SNE02 P0000 T10331061 TSNO
Loading
Personal Weather Stations






























Interactive Weather Map New forecast layout! Learn more

10-Day Weather Forecast

Advertisements
Track Severe Weather on mobile